createdAt,value
2023-05-09T00:01:51.420Z,17.88
2023-05-09T00:04:18.646Z,17.00
2023-05-09T00:06:46.629Z,16.35
2023-05-09T00:09:13.952Z,17.80
2023-05-09T00:11:41.573Z,17.35
2023-05-09T00:14:09.168Z,17.17
2023-05-09T00:16:37.935Z,15.50
2023-05-09T00:19:05.433Z,17.38
2023-05-09T00:21:34.266Z,16.00
2023-05-09T00:24:01.688Z,15.38
2023-05-09T00:26:29.478Z,17.13
2023-05-09T00:28:56.773Z,17.60
2023-05-09T00:31:24.288Z,17.55
2023-05-09T00:33:51.591Z,17.17
2023-05-09T00:36:19.078Z,15.98
2023-05-09T00:38:46.390Z,17.85
2023-05-09T00:41:13.955Z,16.50
2023-05-09T00:43:41.326Z,17.52
2023-05-09T00:46:09.050Z,20.80
2023-05-09T00:48:36.530Z,16.60
2023-05-09T00:51:04.983Z,17.65
2023-05-09T00:53:32.574Z,18.70
2023-05-09T00:56:01.424Z,17.25
2023-05-09T00:58:30.063Z,15.82
2023-05-09T01:00:57.793Z,15.00
2023-05-09T01:03:25.450Z,17.80
2023-05-09T01:06:07.009Z,16.75
2023-05-09T01:09:03.430Z,15.10
2023-05-09T01:12:05.286Z,17.58
2023-05-09T01:14:57.409Z,17.10
2023-05-09T01:18:06.773Z,17.05
2023-05-09T01:20:57.200Z,17.05
2023-05-09T01:24:04.709Z,15.55
2023-05-09T01:26:48.051Z,21.13
2023-05-09T01:29:38.387Z,16.52
2023-05-09T01:32:15.686Z,16.08
2023-05-09T01:34:45.496Z,17.58
2023-05-09T01:37:16.502Z,16.80
2023-05-09T01:39:53.562Z,19.13
2023-05-09T01:42:22.917Z,15.25
2023-05-09T01:44:52.402Z,18.00
2023-05-09T01:47:21.350Z,19.65
2023-05-09T01:49:50.091Z,17.65
2023-05-09T01:52:20.648Z,18.15
2023-05-09T01:54:50.940Z,18.67
2023-05-09T01:57:20.727Z,17.20
2023-05-09T01:59:50.989Z,18.85
2023-05-09T02:02:19.342Z,19.27
2023-05-09T02:04:49.077Z,18.25
2023-05-09T02:07:16.863Z,19.27
2023-05-09T02:09:46.428Z,17.58
2023-05-09T02:12:13.756Z,19.05
2023-05-09T02:14:41.723Z,18.25
2023-05-09T02:17:09.993Z,17.13
2023-05-09T02:19:37.643Z,16.08
2023-05-09T02:22:05.329Z,18.13
2023-05-09T02:24:34.555Z,17.70
2023-05-09T02:27:07.263Z,17.20
2023-05-09T02:29:49.353Z,17.13
2023-05-09T02:32:32.479Z,20.55
2023-05-09T02:35:02.516Z,19.00
2023-05-09T02:37:30.676Z,18.77
2023-05-09T02:39:59.132Z,18.98
2023-05-09T02:42:27.253Z,22.48
2023-05-09T02:44:55.828Z,22.58
2023-05-09T02:47:23.462Z,22.98
2023-05-09T02:49:51.094Z,23.60
2023-05-09T02:52:18.544Z,21.27
2023-05-09T02:54:46.147Z,24.05
2023-05-09T02:57:13.452Z,21.52
2023-05-09T02:59:41.070Z,20.02
2023-05-09T03:02:08.454Z,21.60
2023-05-09T03:04:36.090Z,22.17
2023-05-09T03:07:03.422Z,22.48
2023-05-09T03:09:31.283Z,21.27
2023-05-09T03:11:59.726Z,21.02
2023-05-09T03:14:27.331Z,20.13
2023-05-09T03:16:54.579Z,18.38
2023-05-09T03:19:22.316Z,19.13
2023-05-09T03:21:49.633Z,18.67
2023-05-09T03:24:17.419Z,18.13
2023-05-09T03:26:44.725Z,18.88
2023-05-09T03:29:12.276Z,24.85
2023-05-09T03:31:39.584Z,19.00
2023-05-09T03:34:07.330Z,26.77
2023-05-09T03:36:34.609Z,19.88
2023-05-09T03:39:02.173Z,18.08
2023-05-09T03:41:29.563Z,18.70
2023-05-09T03:43:57.163Z,20.52
2023-05-09T03:46:24.492Z,20.52
2023-05-09T03:48:52.129Z,19.90
2023-05-09T03:51:19.475Z,19.17
2023-05-09T03:53:48.276Z,17.95
2023-05-09T03:56:15.764Z,18.88
2023-05-09T03:58:43.407Z,20.88
2023-05-09T04:01:10.905Z,19.33
2023-05-09T04:03:38.585Z,17.45
2023-05-09T04:06:07.065Z,22.40
2023-05-09T04:08:34.977Z,18.38
2023-05-09T04:11:02.364Z,18.27
2023-05-09T04:13:31.017Z,17.33
2023-05-09T04:15:58.333Z,17.50
2023-05-09T04:18:26.070Z,19.05
2023-05-09T04:20:53.656Z,18.55
2023-05-09T04:23:21.405Z,17.60
2023-05-09T04:25:51.417Z,16.98
2023-05-09T04:28:19.038Z,18.40
2023-05-09T04:30:46.489Z,17.17
2023-05-09T04:33:14.112Z,19.23
2023-05-09T04:35:44.107Z,17.98
2023-05-09T04:38:11.670Z,17.00
2023-05-09T04:40:39.012Z,15.57
2023-05-09T04:43:06.724Z,17.05
2023-05-09T04:45:34.049Z,16.10
2023-05-09T04:48:01.692Z,16.75
2023-05-09T04:50:29.312Z,16.17
2023-05-09T04:52:56.895Z,15.30
2023-05-09T04:55:24.205Z,14.65
2023-05-09T04:57:51.847Z,15.85
2023-05-09T05:00:19.522Z,14.65
2023-05-09T05:02:47.158Z,16.00
2023-05-09T05:05:14.678Z,14.40
2023-05-09T05:07:42.434Z,16.58
2023-05-09T05:10:10.353Z,16.63
2023-05-09T05:12:39.298Z,16.17
2023-05-09T05:15:07.109Z,15.82
2023-05-09T05:17:34.765Z,12.30
2023-05-09T05:20:02.131Z,13.90
2023-05-09T05:22:31.633Z,13.75
2023-05-09T05:25:00.130Z,13.93
2023-05-09T05:27:27.834Z,13.82
2023-05-09T05:29:55.231Z,12.73
2023-05-09T05:32:22.949Z,12.48
2023-05-09T05:34:50.189Z,13.35
2023-05-09T05:37:17.833Z,13.63
2023-05-09T05:39:45.316Z,15.25
2023-05-09T05:42:12.940Z,13.77
2023-05-09T05:44:40.227Z,14.90
2023-05-09T05:47:07.936Z,12.13
2023-05-09T05:49:35.160Z,13.43
2023-05-09T05:52:03.053Z,13.80
2023-05-09T05:54:30.364Z,13.02
2023-05-09T05:56:57.982Z,17.13
2023-05-09T05:59:25.328Z,11.10
2023-05-09T06:01:53.091Z,17.15
2023-05-09T06:04:21.051Z,11.65
2023-05-09T06:06:48.871Z,14.73
2023-05-09T06:09:16.276Z,13.25
2023-05-09T06:11:44.180Z,12.05
2023-05-09T06:14:11.495Z,11.38
2023-05-09T06:16:39.331Z,11.63
2023-05-09T06:19:06.764Z,13.02
2023-05-09T06:21:34.509Z,9.93
2023-05-09T06:24:10.255Z,12.90
2023-05-09T06:26:40.129Z,12.65
2023-05-09T06:29:07.984Z,11.93
2023-05-09T06:31:38.660Z,9.75
2023-05-09T06:34:07.625Z,11.48
2023-05-09T06:36:35.894Z,16.95
2023-05-09T06:39:03.398Z,12.35
2023-05-09T06:41:30.978Z,9.93
2023-05-09T06:43:58.320Z,10.85
2023-05-09T06:46:26.546Z,10.75
2023-05-09T06:48:54.318Z,12.10
2023-05-09T06:51:22.338Z,9.20
2023-05-09T06:53:49.662Z,9.52
2023-05-09T06:56:20.222Z,10.82
2023-05-09T06:58:47.798Z,8.15
2023-05-09T07:01:15.532Z,10.15
2023-05-09T07:03:43.137Z,12.63
2023-05-09T07:06:11.896Z,9.68
2023-05-09T07:08:40.550Z,12.75
2023-05-09T07:11:08.217Z,10.32
2023-05-09T07:13:35.630Z,9.52
2023-05-09T07:16:04.093Z,9.23
2023-05-09T07:18:31.404Z,11.07
2023-05-09T07:20:59.028Z,12.38
2023-05-09T07:23:27.206Z,10.95
2023-05-09T07:25:59.092Z,8.98
2023-05-09T07:28:26.501Z,11.77
2023-05-09T07:30:57.400Z,9.43
2023-05-09T07:33:24.869Z,8.27
2023-05-09T07:35:53.148Z,10.95
2023-05-09T07:38:20.532Z,9.55
2023-05-09T07:40:49.566Z,8.70
2023-05-09T07:43:16.838Z,14.30
2023-05-09T07:45:44.651Z,7.72
2023-05-09T07:48:12.680Z,13.02
2023-05-09T07:50:40.932Z,10.73
2023-05-09T07:53:08.438Z,6.70
2023-05-09T07:55:36.635Z,11.43
2023-05-09T07:58:05.358Z,5.72
2023-05-09T08:00:32.953Z,4.88
2023-05-09T08:03:01.189Z,8.55
2023-05-09T08:05:28.957Z,7.97
2023-05-09T08:07:56.325Z,5.75
2023-05-09T08:10:24.257Z,14.98
2023-05-09T08:12:51.700Z,9.57
2023-05-09T08:15:21.526Z,9.65
2023-05-09T08:17:49.016Z,5.30
2023-05-09T08:20:17.430Z,7.00
2023-05-09T08:22:44.730Z,6.40
2023-05-09T08:25:18.303Z,6.75
2023-05-09T08:27:45.645Z,7.22
2023-05-09T08:30:14.121Z,9.57
2023-05-09T08:32:41.563Z,7.30
2023-05-09T08:35:09.525Z,6.32
2023-05-09T08:37:37.283Z,5.47
2023-05-09T08:40:10.129Z,6.35
2023-05-09T08:42:38.707Z,6.05
2023-05-09T08:45:17.009Z,6.20
2023-05-09T08:47:45.875Z,8.75
2023-05-09T08:50:15.702Z,14.75
2023-05-09T08:52:43.628Z,5.78
2023-05-09T08:55:12.734Z,7.82
2023-05-09T08:57:40.510Z,5.63
2023-05-09T09:00:12.278Z,11.00
2023-05-09T09:02:44.644Z,7.72
2023-05-09T09:05:23.847Z,6.88
2023-05-09T09:08:01.073Z,5.43
2023-05-09T09:10:32.886Z,7.65
2023-05-09T09:13:05.056Z,6.70
2023-05-09T09:15:38.241Z,9.05
2023-05-09T09:18:10.409Z,4.88
2023-05-09T09:20:50.004Z,5.90
2023-05-09T09:23:26.367Z,5.97
2023-05-09T09:26:07.017Z,4.05
2023-05-09T09:28:34.809Z,5.10
2023-05-09T09:31:02.607Z,4.07
2023-05-09T09:33:30.108Z,3.83
2023-05-09T09:35:57.888Z,5.72
2023-05-09T09:38:25.751Z,4.20
2023-05-09T09:40:57.237Z,3.83
2023-05-09T09:43:31.989Z,3.17
2023-05-09T09:46:04.299Z,3.13
2023-05-09T09:48:34.994Z,3.88
2023-05-09T09:51:15.038Z,3.22
2023-05-09T09:53:43.736Z,4.18
2023-05-09T09:56:11.870Z,2.03
2023-05-09T09:58:39.551Z,2.38
2023-05-09T10:01:14.225Z,2.92
2023-05-09T10:03:47.313Z,3.50
2023-05-09T10:06:16.913Z,1.83
2023-05-09T10:08:49.358Z,2.22
2023-05-09T10:11:17.129Z,3.08
2023-05-09T10:13:45.978Z,2.75
2023-05-09T10:16:14.893Z,1.95
2023-05-09T10:18:43.300Z,2.35
2023-05-09T10:21:15.467Z,2.83
2023-05-09T10:23:52.447Z,2.28
2023-05-09T10:26:30.627Z,1.65
2023-05-09T10:29:07.452Z,1.65
2023-05-09T10:31:40.857Z,2.45
2023-05-09T10:34:13.166Z,4.18
2023-05-09T10:36:40.885Z,3.65
2023-05-09T10:39:08.936Z,3.20
2023-05-09T10:41:38.907Z,2.10
2023-05-09T10:44:07.265Z,1.90
2023-05-09T10:46:36.233Z,3.10
2023-05-09T10:49:04.657Z,2.28
2023-05-09T10:51:33.158Z,2.78
2023-05-09T10:54:01.465Z,2.22
2023-05-09T10:56:40.053Z,19.90
2023-05-09T10:59:33.492Z,4.53
2023-05-09T11:02:03.040Z,2.65
2023-05-09T11:04:32.826Z,2.78
2023-05-09T11:07:01.305Z,2.85
2023-05-09T11:09:38.196Z,4.05
2023-05-09T11:12:06.191Z,6.55
2023-05-09T11:14:58.165Z,3.30
2023-05-09T11:17:25.862Z,4.10
2023-05-09T11:19:53.098Z,2.30
2023-05-09T11:22:38.775Z,2.53
2023-05-09T11:25:11.368Z,6.47
2023-05-09T11:27:50.299Z,8.15
2023-05-09T11:30:21.007Z,5.15
2023-05-09T11:32:59.056Z,4.85
2023-05-09T11:35:27.400Z,11.68
2023-05-09T11:38:04.588Z,4.45
2023-05-09T11:40:35.007Z,3.72
2023-05-09T11:43:02.768Z,3.25
2023-05-09T11:45:33.119Z,5.53
2023-05-09T11:48:02.254Z,2.78
2023-05-09T11:50:30.019Z,3.10
2023-05-09T11:52:58.700Z,2.63
2023-05-09T11:55:30.185Z,3.63
2023-05-09T11:57:59.468Z,5.00
2023-05-09T12:00:26.955Z,2.20
2023-05-09T12:02:54.911Z,2.67
2023-05-09T12:05:23.871Z,3.90
2023-05-09T12:07:52.590Z,3.20
2023-05-09T12:10:23.262Z,5.25
2023-05-09T12:12:55.867Z,8.85
2023-05-09T12:15:23.925Z,3.10
2023-05-09T12:18:07.195Z,3.22
2023-05-09T12:20:52.641Z,5.97
2023-05-09T12:23:20.523Z,2.88
2023-05-09T12:25:52.874Z,4.07
2023-05-09T12:28:23.875Z,3.83
2023-05-09T12:30:53.314Z,1.60
2023-05-09T12:33:23.753Z,3.00
2023-05-09T12:36:07.964Z,2.47
2023-05-09T12:38:35.696Z,3.03
2023-05-09T12:41:29.594Z,2.22
2023-05-09T12:43:58.882Z,2.40
2023-05-09T12:46:27.586Z,3.22
2023-05-09T12:48:55.309Z,4.65
2023-05-09T12:51:23.403Z,2.22
2023-05-09T12:53:51.380Z,5.90
2023-05-09T12:56:25.523Z,4.03
2023-05-09T12:58:55.535Z,2.20
2023-05-09T13:01:29.872Z,2.90
2023-05-09T13:04:07.527Z,2.10
2023-05-09T13:06:36.413Z,5.10
2023-05-09T13:09:08.431Z,4.05
2023-05-09T13:11:37.878Z,3.85
2023-05-09T13:14:05.643Z,2.38
2023-05-09T13:16:33.280Z,4.32
2023-05-09T13:19:01.831Z,1.80
2023-05-09T13:21:29.233Z,3.67
2023-05-09T13:23:56.872Z,2.17
2023-05-09T13:26:24.301Z,3.85
2023-05-09T13:28:52.140Z,3.05
2023-05-09T13:31:20.249Z,3.15
2023-05-09T13:33:50.027Z,2.03
2023-05-09T13:36:19.492Z,2.45
2023-05-09T13:38:47.208Z,3.15
2023-05-09T13:41:20.441Z,1.60
2023-05-09T13:43:48.685Z,2.53
2023-05-09T13:46:18.557Z,2.22
2023-05-09T13:48:47.802Z,4.80
2023-05-09T13:51:15.214Z,3.47
2023-05-09T13:53:42.816Z,2.90
2023-05-09T13:56:10.129Z,2.78
2023-05-09T13:58:37.772Z,2.75
2023-05-09T14:01:05.268Z,4.63
2023-05-09T14:03:33.020Z,2.53
2023-05-09T14:06:00.347Z,3.42
2023-05-09T14:08:28.040Z,5.93
2023-05-09T14:10:55.507Z,3.22
2023-05-09T14:13:23.273Z,5.45
2023-05-09T14:15:50.748Z,2.60
2023-05-09T14:18:20.707Z,2.55
2023-05-09T14:20:48.672Z,2.65
2023-05-09T14:23:16.459Z,2.70
2023-05-09T14:25:43.720Z,5.38
2023-05-09T14:28:12.058Z,3.35
2023-05-09T14:30:39.352Z,2.45
2023-05-09T14:33:16.090Z,4.13
2023-05-09T14:35:43.363Z,1.80
2023-05-09T14:38:12.603Z,4.18
2023-05-09T14:40:39.928Z,3.10
2023-05-09T14:43:07.740Z,4.63
2023-05-09T14:45:35.319Z,2.78
2023-05-09T14:48:05.932Z,5.38
2023-05-09T14:50:33.543Z,3.58
2023-05-09T14:53:02.720Z,6.93
2023-05-09T14:55:31.346Z,4.15
2023-05-09T14:57:59.173Z,5.03
2023-05-09T15:00:27.207Z,2.08
2023-05-09T15:02:55.167Z,6.90
2023-05-09T15:05:22.623Z,2.75
2023-05-09T15:07:50.576Z,2.92
2023-05-09T15:10:18.287Z,2.88
2023-05-09T15:12:46.141Z,1.98
2023-05-09T15:15:23.597Z,2.38
2023-05-09T15:17:53.077Z,3.20
2023-05-09T15:20:20.972Z,3.33
2023-05-09T15:22:49.995Z,2.53
2023-05-09T15:25:18.171Z,5.28
2023-05-09T15:27:45.541Z,3.70
2023-05-09T15:30:14.273Z,5.00
2023-05-09T15:32:42.002Z,5.55
2023-05-09T15:35:10.630Z,2.75
2023-05-09T15:37:38.013Z,2.55
2023-05-09T15:40:06.651Z,2.60
2023-05-09T15:42:34.206Z,2.50
2023-05-09T15:45:01.949Z,3.88
2023-05-09T15:47:29.357Z,2.97
2023-05-09T15:49:56.928Z,2.60
2023-05-09T15:52:25.281Z,2.60
2023-05-09T15:54:55.194Z,4.95
2023-05-09T15:57:23.167Z,3.80
2023-05-09T15:59:50.822Z,4.30
2023-05-09T16:02:18.133Z,5.32
2023-05-09T16:04:45.855Z,9.90
2023-05-09T16:07:13.308Z,3.20
2023-05-09T16:09:41.368Z,3.70
2023-05-09T16:12:09.447Z,2.10
2023-05-09T16:14:37.101Z,1.98
2023-05-09T16:17:04.685Z,7.13
2023-05-09T16:19:33.741Z,4.45
2023-05-09T16:22:03.097Z,1.90
2023-05-09T16:24:32.232Z,1.58
2023-05-09T16:26:59.752Z,2.35
2023-05-09T16:29:28.586Z,3.75
2023-05-09T16:31:56.020Z,4.05
2023-05-09T16:34:23.647Z,2.53
2023-05-09T16:36:52.410Z,2.30
2023-05-09T16:39:20.028Z,2.70
2023-05-09T16:41:47.287Z,2.30
2023-05-09T16:44:15.916Z,3.00
2023-05-09T16:46:43.315Z,1.83
2023-05-09T16:49:11.298Z,4.55
2023-05-09T16:51:38.884Z,3.90
2023-05-09T16:54:06.788Z,3.45
2023-05-09T16:56:35.324Z,2.00
2023-05-09T16:59:03.728Z,3.17
2023-05-09T17:01:31.157Z,3.63
2023-05-09T17:03:59.024Z,3.92
2023-05-09T17:06:30.061Z,2.25
2023-05-09T17:08:59.928Z,3.42
2023-05-09T17:11:27.272Z,3.90
2023-05-09T17:13:54.841Z,4.20
2023-05-09T17:16:22.221Z,2.28
2023-05-09T17:18:49.801Z,14.00
2023-05-09T17:21:17.518Z,5.18
2023-05-09T17:23:45.102Z,3.42
2023-05-09T17:26:12.430Z,3.58
2023-05-09T17:28:40.118Z,4.47
2023-05-09T17:31:07.567Z,4.70
2023-05-09T17:33:35.239Z,2.47
2023-05-09T17:36:02.652Z,4.18
2023-05-09T17:38:30.355Z,3.22
2023-05-09T17:40:57.647Z,3.65
2023-05-09T17:43:27.935Z,2.85
2023-05-09T17:45:55.271Z,6.10
2023-05-09T17:48:22.934Z,4.22
2023-05-09T17:50:50.830Z,3.60
2023-05-09T17:53:18.460Z,3.28
2023-05-09T17:55:45.866Z,3.40
2023-05-09T17:58:20.880Z,3.58
2023-05-09T18:00:48.116Z,2.78
2023-05-09T18:03:16.340Z,3.78
2023-05-09T18:05:43.779Z,2.65
2023-05-09T18:08:11.363Z,2.55
2023-05-09T18:10:38.722Z,3.95
2023-05-09T18:13:06.745Z,6.30
2023-05-09T18:15:38.120Z,14.68
2023-05-09T18:18:07.992Z,4.60
2023-05-09T18:20:36.017Z,3.60
2023-05-09T18:23:03.720Z,6.32
2023-05-09T18:25:31.267Z,7.72
2023-05-09T18:27:59.103Z,5.80
2023-05-09T18:30:27.859Z,5.10
2023-05-09T18:33:00.210Z,5.65
2023-05-09T18:35:27.874Z,6.22
2023-05-09T18:37:55.416Z,4.78
2023-05-09T18:40:22.726Z,5.57
2023-05-09T18:42:52.075Z,4.75
2023-05-09T18:45:19.394Z,5.40
2023-05-09T18:47:46.950Z,5.65
2023-05-09T18:50:14.538Z,4.85
2023-05-09T18:52:44.401Z,5.07
2023-05-09T18:55:13.362Z,6.18
2023-05-09T18:57:41.082Z,5.07
2023-05-09T19:00:09.154Z,6.28
2023-05-09T19:02:36.708Z,5.60
2023-05-09T19:05:07.297Z,5.20
2023-05-09T19:07:38.960Z,5.97
2023-05-09T19:10:08.441Z,4.40
2023-05-09T19:12:44.460Z,4.47
2023-05-09T19:15:12.555Z,5.55
2023-05-09T19:17:40.392Z,6.88
2023-05-09T19:20:08.828Z,6.07
2023-05-09T19:22:36.637Z,6.05
2023-05-09T19:25:04.582Z,7.78
2023-05-09T19:27:33.564Z,4.35
2023-05-09T19:30:00.901Z,6.32
2023-05-09T19:32:28.534Z,5.18
2023-05-09T19:34:56.088Z,8.52
2023-05-09T19:37:23.682Z,6.03
2023-05-09T19:39:52.138Z,4.85
2023-05-09T19:42:19.809Z,8.95
2023-05-09T19:44:47.447Z,5.57
2023-05-09T19:47:15.159Z,4.50
2023-05-09T19:49:43.151Z,4.25
2023-05-09T19:52:10.844Z,5.60
2023-05-09T19:54:38.104Z,4.88
2023-05-09T19:57:06.612Z,6.20
2023-05-09T19:59:34.202Z,4.00
2023-05-09T20:02:04.843Z,4.55
2023-05-09T20:04:37.290Z,4.93
2023-05-09T20:07:05.652Z,4.78
2023-05-09T20:09:33.220Z,6.18
2023-05-09T20:12:03.691Z,4.47
2023-05-09T20:14:32.052Z,4.65
2023-05-09T20:16:59.838Z,6.82
2023-05-09T20:19:27.196Z,5.35
2023-05-09T20:21:54.873Z,5.60
2023-05-09T20:24:22.289Z,5.90
2023-05-09T20:26:51.983Z,5.63
2023-05-09T20:29:19.242Z,7.22
2023-05-09T20:31:47.419Z,4.70
2023-05-09T20:34:17.908Z,7.25
2023-05-09T20:36:53.392Z,5.72
2023-05-09T20:39:21.702Z,4.68
2023-05-09T20:41:50.881Z,5.22
2023-05-09T20:44:19.299Z,6.60
2023-05-09T20:46:47.058Z,5.88
2023-05-09T20:49:15.562Z,8.15
2023-05-09T20:51:43.195Z,7.80
2023-05-09T20:54:10.995Z,5.70
2023-05-09T20:56:41.017Z,5.72
2023-05-09T20:59:08.765Z,6.20
2023-05-09T21:01:40.296Z,5.15
2023-05-09T21:04:08.563Z,5.32
2023-05-09T21:06:37.158Z,6.15
2023-05-09T21:09:09.475Z,5.70
2023-05-09T21:11:38.467Z,6.78
2023-05-09T21:14:08.805Z,4.70
2023-05-09T21:16:36.474Z,5.68
2023-05-09T21:19:05.326Z,4.60
2023-05-09T21:21:34.546Z,6.18
2023-05-09T21:24:04.345Z,6.32
2023-05-09T21:26:32.537Z,6.13
2023-05-09T21:28:59.807Z,5.00
2023-05-09T21:31:27.407Z,4.68
2023-05-09T21:33:54.741Z,5.72
2023-05-09T21:36:22.350Z,5.35
2023-05-09T21:38:49.600Z,4.70
2023-05-09T21:41:17.525Z,4.20
2023-05-09T21:43:44.890Z,6.10
2023-05-09T21:46:12.620Z,6.22
2023-05-09T21:48:41.397Z,5.78
2023-05-09T21:51:09.055Z,4.82
2023-05-09T21:53:36.401Z,4.72
2023-05-09T21:56:04.274Z,5.70
2023-05-09T21:58:32.283Z,6.38
2023-05-09T22:00:59.881Z,5.47
2023-05-09T22:03:27.361Z,4.95
2023-05-09T22:05:55.122Z,6.25
2023-05-09T22:08:23.543Z,5.95
2023-05-09T22:10:51.574Z,6.78
2023-05-09T22:13:18.994Z,6.72
2023-05-09T22:15:46.682Z,8.35
2023-05-09T22:18:14.037Z,5.55
2023-05-09T22:20:49.094Z,6.43
2023-05-09T22:23:16.408Z,7.32
2023-05-09T22:25:45.340Z,5.75
2023-05-09T22:28:12.667Z,6.38
2023-05-09T22:30:40.218Z,9.40
2023-05-09T22:33:07.577Z,6.45
2023-05-09T22:35:35.269Z,5.75
2023-05-09T22:38:03.623Z,6.82
2023-05-09T22:40:31.284Z,8.00
2023-05-09T22:42:58.768Z,6.07
2023-05-09T22:45:26.506Z,6.70
2023-05-09T22:47:53.887Z,7.47
2023-05-09T22:50:21.578Z,6.28
2023-05-09T22:52:48.987Z,6.70
2023-05-09T22:55:16.632Z,5.65
2023-05-09T22:57:43.937Z,7.43
2023-05-09T23:00:12.293Z,6.32
2023-05-09T23:02:39.751Z,7.88
2023-05-09T23:05:08.966Z,7.88
2023-05-09T23:07:36.451Z,6.15
2023-05-09T23:10:05.087Z,7.03
2023-05-09T23:12:32.520Z,7.30
2023-05-09T23:15:00.079Z,6.57
2023-05-09T23:17:27.731Z,6.22
2023-05-09T23:19:55.500Z,7.30
2023-05-09T23:22:22.881Z,8.57
2023-05-09T23:24:50.524Z,7.78
2023-05-09T23:27:18.013Z,6.75
2023-05-09T23:29:45.561Z,9.70
2023-05-09T23:32:12.898Z,9.70
2023-05-09T23:34:40.461Z,7.85
2023-05-09T23:37:08.831Z,6.05
2023-05-09T23:39:36.353Z,7.22
2023-05-09T23:42:04.257Z,6.78
2023-05-09T23:44:31.886Z,7.25
2023-05-09T23:46:59.272Z,5.80
2023-05-09T23:49:27.361Z,8.38
2023-05-09T23:51:54.656Z,7.55
2023-05-09T23:54:22.759Z,8.10
2023-05-09T23:56:50.264Z,7.68
2023-05-09T23:59:17.809Z,8.45
